sensor_id;sensor_type;location;lat;lon;timestamp;P1;durP1;ratioP1;P2;durP2;ratioP2
15921;SDS011;8060;50.948;3.146;2022-09-02T06:05:08;21.33;;;8.00;;
15921;SDS011;8060;50.948;3.146;2022-09-02T06:07:37;24.53;;;8.33;;
15921;SDS011;8060;50.948;3.146;2022-09-02T06:10:06;26.00;;;8.60;;
15921;SDS011;8060;50.948;3.146;2022-09-02T06:12:34;25.23;;;8.20;;
15921;SDS011;8060;50.948;3.146;2022-09-02T06:15:08;30.90;;;9.97;;
15921;SDS011;8060;50.948;3.146;2022-09-02T06:17:37;19.53;;;8.67;;
15921;SDS011;8060;50.948;3.146;2022-09-02T06:20:05;16.13;;;8.30;;
15921;SDS011;8060;50.948;3.146;2022-09-02T06:22:37;21.77;;;9.10;;
15921;SDS011;8060;50.948;3.146;2022-09-02T06:25:05;25.10;;;8.53;;
15921;SDS011;8060;50.948;3.146;2022-09-02T06:27:33;22.60;;;8.80;;
15921;SDS011;8060;50.948;3.146;2022-09-02T06:30:04;29.27;;;8.37;;
15921;SDS011;8060;50.948;3.146;2022-09-02T06:32:33;17.87;;;7.90;;
15921;SDS011;8060;50.948;3.146;2022-09-02T06:35:01;18.00;;;8.20;;
15921;SDS011;8060;50.948;3.146;2022-09-02T06:37:30;19.13;;;8.93;;
15921;SDS011;8060;50.948;3.146;2022-09-02T06:39:59;19.67;;;7.73;;
15921;SDS011;8060;50.948;3.146;2022-09-02T06:42:27;21.07;;;7.40;;
15921;SDS011;8060;50.948;3.146;2022-09-02T06:44:55;9.87;;;7.07;;
15921;SDS011;8060;50.948;3.146;2022-09-02T06:47:24;15.13;;;7.07;;
15921;SDS011;8060;50.948;3.146;2022-09-02T06:49:52;14.57;;;7.60;;
15921;SDS011;8060;50.948;3.146;2022-09-02T06:52:20;20.70;;;7.40;;
15921;SDS011;8060;50.948;3.146;2022-09-02T06:54:49;21.83;;;7.70;;
15921;SDS011;8060;50.948;3.146;2022-09-02T06:57:18;26.97;;;8.03;;
15921;SDS011;8060;50.948;3.146;2022-09-02T06:59:47;16.93;;;7.27;;
15921;SDS011;8060;50.948;3.146;2022-09-02T07:02:15;18.27;;;7.67;;
15921;SDS011;8060;50.948;3.146;2022-09-02T07:04:43;29.17;;;7.90;;
15921;SDS011;8060;50.948;3.146;2022-09-02T07:07:29;25.67;;;8.33;;
15921;SDS011;8060;50.948;3.146;2022-09-02T07:09:58;16.13;;;7.40;;
15921;SDS011;8060;50.948;3.146;2022-09-02T07:12:26;17.73;;;7.60;;
15921;SDS011;8060;50.948;3.146;2022-09-02T07:14:54;15.53;;;7.70;;
15921;SDS011;8060;50.948;3.146;2022-09-02T07:17:22;14.00;;;8.37;;
15921;SDS011;8060;50.948;3.146;2022-09-02T07:19:51;14.70;;;8.10;;
15921;SDS011;8060;50.948;3.146;2022-09-02T07:22:21;16.60;;;7.63;;
15921;SDS011;8060;50.948;3.146;2022-09-02T07:24:49;14.77;;;7.80;;
15921;SDS011;8060;50.948;3.146;2022-09-02T07:27:18;23.27;;;8.53;;
15921;SDS011;8060;50.948;3.146;2022-09-02T07:29:47;18.33;;;8.73;;
15921;SDS011;8060;50.948;3.146;2022-09-02T07:32:15;20.30;;;8.90;;
15921;SDS011;8060;50.948;3.146;2022-09-02T07:34:44;17.93;;;8.93;;
15921;SDS011;8060;50.948;3.146;2022-09-02T07:37:12;20.47;;;10.03;;
15921;SDS011;8060;50.948;3.146;2022-09-02T07:39:40;23.07;;;9.37;;
15921;SDS011;8060;50.948;3.146;2022-09-02T07:42:09;19.67;;;9.83;;
15921;SDS011;8060;50.948;3.146;2022-09-02T07:44:39;23.43;;;9.93;;
15921;SDS011;8060;50.948;3.146;2022-09-02T07:47:07;24.27;;;9.03;;
15921;SDS011;8060;50.948;3.146;2022-09-02T07:49:36;15.90;;;8.67;;
15921;SDS011;8060;50.948;3.146;2022-09-02T07:52:25;21.47;;;8.97;;
15921;SDS011;8060;50.948;3.146;2022-09-02T07:54:53;15.73;;;8.90;;
15921;SDS011;8060;50.948;3.146;2022-09-02T07:57:21;20.10;;;8.50;;
15921;SDS011;8060;50.948;3.146;2022-09-02T07:59:51;15.13;;;8.40;;
15921;SDS011;8060;50.948;3.146;2022-09-02T08:02:19;18.03;;;9.43;;
15921;SDS011;8060;50.948;3.146;2022-09-02T08:04:48;25.20;;;8.00;;
15921;SDS011;8060;50.948;3.146;2022-09-02T08:07:16;15.30;;;7.87;;
15921;SDS011;8060;50.948;3.146;2022-09-02T08:09:49;19.60;;;8.87;;
15921;SDS011;8060;50.948;3.146;2022-09-02T08:12:17;17.90;;;7.30;;
15921;SDS011;8060;50.948;3.146;2022-09-02T08:14:47;14.90;;;7.53;;
15921;SDS011;8060;50.948;3.146;2022-09-02T08:17:17;28.07;;;7.50;;
15921;SDS011;8060;50.948;3.146;2022-09-02T08:19:46;18.10;;;7.13;;
15921;SDS011;8060;50.948;3.146;2022-09-02T08:22:14;14.63;;;6.43;;
15921;SDS011;8060;50.948;3.146;2022-09-02T08:24:43;11.30;;;6.17;;
15921;SDS011;8060;50.948;3.146;2022-09-02T08:27:11;19.67;;;6.87;;
15921;SDS011;8060;50.948;3.146;2022-09-02T08:29:39;9.27;;;6.37;;
15921;SDS011;8060;50.948;3.146;2022-09-02T08:32:08;17.03;;;6.80;;
15921;SDS011;8060;50.948;3.146;2022-09-02T08:34:37;12.90;;;6.10;;
15921;SDS011;8060;50.948;3.146;2022-09-02T08:37:06;13.23;;;6.50;;
15921;SDS011;8060;50.948;3.146;2022-09-02T08:39:34;10.00;;;5.80;;
15921;SDS011;8060;50.948;3.146;2022-09-02T08:42:04;13.02;;;6.05;;
15921;SDS011;8060;50.948;3.146;2022-09-02T08:44:38;11.85;;;5.80;;
15921;SDS011;8060;50.948;3.146;2022-09-02T08:47:08;15.48;;;6.00;;
15921;SDS011;8060;50.948;3.146;2022-09-02T08:49:41;15.10;;;6.22;;
15921;SDS011;8060;50.948;3.146;2022-09-02T08:52:14;12.05;;;6.32;;
15921;SDS011;8060;50.948;3.146;2022-09-02T08:54:50;11.00;;;5.63;;
15921;SDS011;8060;50.948;3.146;2022-09-02T08:57:20;7.82;;;4.93;;
15921;SDS011;8060;50.948;3.146;2022-09-02T08:59:52;16.02;;;6.25;;
15921;SDS011;8060;50.948;3.146;2022-09-02T09:02:25;13.63;;;5.53;;
15921;SDS011;8060;50.948;3.146;2022-09-02T09:05:06;13.00;;;5.45;;
15921;SDS011;8060;50.948;3.146;2022-09-02T09:07:46;12.23;;;5.82;;
15921;SDS011;8060;50.948;3.146;2022-09-02T09:10:24;12.75;;;5.55;;
15921;SDS011;8060;50.948;3.146;2022-09-02T09:13:00;17.20;;;6.30;;
15921;SDS011;8060;50.948;3.146;2022-09-02T09:15:39;9.10;;;5.32;;
15921;SDS011;8060;50.948;3.146;2022-09-02T09:18:13;11.98;;;6.00;;
15921;SDS011;8060;50.948;3.146;2022-09-02T09:20:45;14.40;;;5.47;;
15921;SDS011;8060;50.948;3.146;2022-09-02T09:23:21;10.90;;;5.28;;
15921;SDS011;8060;50.948;3.146;2022-09-02T09:26:03;9.15;;;4.95;;
15921;SDS011;8060;50.948;3.146;2022-09-02T09:28:37;9.27;;;4.95;;
15921;SDS011;8060;50.948;3.146;2022-09-02T09:31:11;14.75;;;6.35;;
15921;SDS011;8060;50.948;3.146;2022-09-02T09:33:53;17.73;;;5.15;;
15921;SDS011;8060;50.948;3.146;2022-09-02T09:36:33;13.95;;;4.85;;
15921;SDS011;8060;50.948;3.146;2022-09-02T09:39:15;60.78;;;9.25;;
15921;SDS011;8060;50.948;3.146;2022-09-02T09:41:49;10.75;;;4.90;;
15921;SDS011;8060;50.948;3.146;2022-09-02T09:44:33;11.05;;;4.30;;
15921;SDS011;8060;50.948;3.146;2022-09-02T09:47:05;6.10;;;3.70;;
15921;SDS011;8060;50.948;3.146;2022-09-02T09:49:35;28.27;;;5.55;;
15921;SDS011;8060;50.948;3.146;2022-09-02T09:52:06;17.38;;;4.93;;
15921;SDS011;8060;50.948;3.146;2022-09-02T09:54:35;12.15;;;3.60;;
15921;SDS011;8060;50.948;3.146;2022-09-02T09:57:13;6.72;;;3.58;;
15921;SDS011;8060;50.948;3.146;2022-09-02T09:59:46;9.50;;;3.20;;
15921;SDS011;8060;50.948;3.146;2022-09-02T10:02:21;8.60;;;3.75;;
15921;SDS011;8060;50.948;3.146;2022-09-02T10:04:51;5.40;;;4.28;;
15921;SDS011;8060;50.948;3.146;2022-09-02T10:07:34;5.85;;;3.70;;
15921;SDS011;8060;50.948;3.146;2022-09-02T10:10:10;5.45;;;3.90;;
15921;SDS011;8060;50.948;3.146;2022-09-02T10:12:44;5.60;;;3.20;;
15921;SDS011;8060;50.948;3.146;2022-09-02T10:15:13;6.88;;;3.30;;
15921;SDS011;8060;50.948;3.146;2022-09-02T10:17:44;7.40;;;4.05;;
15921;SDS011;8060;50.948;3.146;2022-09-02T10:20:17;6.88;;;3.80;;
15921;SDS011;8060;50.948;3.146;2022-09-02T10:22:58;7.97;;;4.18;;
15921;SDS011;8060;50.948;3.146;2022-09-02T10:25:42;8.40;;;4.30;;
15921;SDS011;8060;50.948;3.146;2022-09-02T10:28:22;9.50;;;4.20;;
15921;SDS011;8060;50.948;3.146;2022-09-02T10:31:06;10.27;;;4.03;;
15921;SDS011;8060;50.948;3.146;2022-09-02T10:33:45;10.52;;;4.38;;
15921;SDS011;8060;50.948;3.146;2022-09-02T10:36:26;6.43;;;4.00;;
15921;SDS011;8060;50.948;3.146;2022-09-02T10:39:04;7.78;;;4.32;;
15921;SDS011;8060;50.948;3.146;2022-09-02T10:41:42;9.63;;;4.43;;
15921;SDS011;8060;50.948;3.146;2022-09-02T10:44:19;7.57;;;3.70;;
15921;SDS011;8060;50.948;3.146;2022-09-02T10:46:55;10.27;;;4.32;;
15921;SDS011;8060;50.948;3.146;2022-09-02T10:49:37;9.85;;;3.80;;
15921;SDS011;8060;50.948;3.146;2022-09-02T10:52:16;5.30;;;3.30;;
15921;SDS011;8060;50.948;3.146;2022-09-02T10:55:02;9.45;;;3.80;;
15921;SDS011;8060;50.948;3.146;2022-09-02T10:57:39;7.53;;;3.70;;
15921;SDS011;8060;50.948;3.146;2022-09-02T11:00:14;8.45;;;3.38;;
15921;SDS011;8060;50.948;3.146;2022-09-02T11:02:46;9.85;;;4.15;;
15921;SDS011;8060;50.948;3.146;2022-09-02T11:05:18;6.50;;;3.40;;
15921;SDS011;8060;50.948;3.146;2022-09-02T11:07:51;4.25;;;3.65;;
15921;SDS011;8060;50.948;3.146;2022-09-02T11:10:26;9.38;;;3.30;;
15921;SDS011;8060;50.948;3.146;2022-09-02T11:12:59;6.85;;;3.80;;
15921;SDS011;8060;50.948;3.146;2022-09-02T11:15:36;46.08;;;8.63;;
15921;SDS011;8060;50.948;3.146;2022-09-02T11:18:12;5.95;;;4.28;;
15921;SDS011;8060;50.948;3.146;2022-09-02T11:20:47;5.30;;;3.40;;
15921;SDS011;8060;50.948;3.146;2022-09-02T11:23:24;6.70;;;3.75;;
15921;SDS011;8060;50.948;3.146;2022-09-02T11:26:03;5.15;;;3.50;;
15921;SDS011;8060;50.948;3.146;2022-09-02T11:28:39;9.52;;;3.53;;
15921;SDS011;8060;50.948;3.146;2022-09-02T11:31:14;5.25;;;4.00;;
15921;SDS011;8060;50.948;3.146;2022-09-02T11:33:48;8.93;;;3.42;;
15921;SDS011;8060;50.948;3.146;2022-09-02T11:36:21;11.68;;;3.05;;
15921;SDS011;8060;50.948;3.146;2022-09-02T11:38:55;9.02;;;3.78;;
15921;SDS011;8060;50.948;3.146;2022-09-02T11:41:36;6.63;;;2.80;;
15921;SDS011;8060;50.948;3.146;2022-09-02T11:44:24;5.80;;;3.15;;
15921;SDS011;8060;50.948;3.146;2022-09-02T11:50:18;11.48;;;3.15;;
15921;SDS011;8060;50.948;3.146;2022-09-02T11:53:09;5.03;;;3.35;;
15921;SDS011;8060;50.948;3.146;2022-09-02T11:55:46;8.95;;;3.53;;
15921;SDS011;8060;50.948;3.146;2022-09-02T11:58:45;4.50;;;2.95;;
15921;SDS011;8060;50.948;3.146;2022-09-02T12:01:20;12.38;;;3.50;;
15921;SDS011;8060;50.948;3.146;2022-09-02T12:03:54;17.65;;;4.88;;
15921;SDS011;8060;50.948;3.146;2022-09-02T12:09:57;4.28;;;2.85;;
15921;SDS011;8060;50.948;3.146;2022-09-02T12:15:36;4.95;;;3.20;;
15921;SDS011;8060;50.948;3.146;2022-09-02T12:18:09;15.43;;;3.38;;
15921;SDS011;8060;50.948;3.146;2022-09-02T12:29:53;8.80;;;2.85;;
15921;SDS011;8060;50.948;3.146;2022-09-02T12:35:49;7.53;;;2.90;;
15921;SDS011;8060;50.948;3.146;2022-09-02T12:38:26;7.90;;;2.70;;
15921;SDS011;8060;50.948;3.146;2022-09-02T12:41:08;9.50;;;2.80;;
15921;SDS011;8060;50.948;3.146;2022-09-02T12:46:53;8.15;;;2.78;;
15921;SDS011;8060;50.948;3.146;2022-09-02T12:49:27;7.70;;;3.15;;
15921;SDS011;8060;50.948;3.146;2022-09-02T12:52:07;9.75;;;3.38;;
15921;SDS011;8060;50.948;3.146;2022-09-02T12:54:40;9.50;;;3.00;;
15921;SDS011;8060;50.948;3.146;2022-09-02T12:57:13;9.98;;;2.70;;
15921;SDS011;8060;50.948;3.146;2022-09-02T12:59:43;6.32;;;3.00;;
15921;SDS011;8060;50.948;3.146;2022-09-02T13:02:23;8.43;;;3.20;;
15921;SDS011;8060;50.948;3.146;2022-09-02T13:05:01;7.30;;;3.33;;
15921;SDS011;8060;50.948;3.146;2022-09-02T13:10:50;6.10;;;2.50;;
15921;SDS011;8060;50.948;3.146;2022-09-02T13:16:27;8.02;;;2.95;;
15921;SDS011;8060;50.948;3.146;2022-09-02T13:19:19;7.90;;;2.75;;
15921;SDS011;8060;50.948;3.146;2022-09-02T13:31:02;6.18;;;3.22;;
15921;SDS011;8060;50.948;3.146;2022-09-02T13:33:42;5.80;;;3.17;;
15921;SDS011;8060;50.948;3.146;2022-09-02T13:36:16;7.03;;;3.17;;
15921;SDS011;8060;50.948;3.146;2022-09-02T13:38:50;4.95;;;3.10;;
15921;SDS011;8060;50.948;3.146;2022-09-02T13:41:27;3.47;;;2.80;;
15921;SDS011;8060;50.948;3.146;2022-09-02T13:44:07;5.47;;;2.78;;
15921;SDS011;8060;50.948;3.146;2022-09-02T13:46:46;5.25;;;2.90;;
15921;SDS011;8060;50.948;3.146;2022-09-02T13:49:19;4.40;;;2.60;;
15921;SDS011;8060;50.948;3.146;2022-09-02T13:51:52;4.53;;;2.33;;
15921;SDS011;8060;50.948;3.146;2022-09-02T13:54:23;6.40;;;2.60;;
15921;SDS011;8060;50.948;3.146;2022-09-02T13:56:56;4.40;;;2.88;;
15921;SDS011;8060;50.948;3.146;2022-09-02T13:59:31;7.90;;;3.00;;
15921;SDS011;8060;50.948;3.146;2022-09-02T14:02:14;3.45;;;3.05;;
15921;SDS011;8060;50.948;3.146;2022-09-02T14:04:44;3.80;;;2.80;;
15921;SDS011;8060;50.948;3.146;2022-09-02T14:07:13;6.10;;;2.80;;
15921;SDS011;8060;50.948;3.146;2022-09-02T14:09:42;5.18;;;2.80;;
15921;SDS011;8060;50.948;3.146;2022-09-02T14:12:11;4.80;;;2.70;;
15921;SDS011;8060;50.948;3.146;2022-09-02T14:14:41;7.50;;;3.00;;
15921;SDS011;8060;50.948;3.146;2022-09-02T14:17:18;7.60;;;2.80;;
15921;SDS011;8060;50.948;3.146;2022-09-02T14:19:48;6.25;;;3.00;;
15921;SDS011;8060;50.948;3.146;2022-09-02T14:22:21;6.68;;;2.85;;
15921;SDS011;8060;50.948;3.146;2022-09-02T14:24:52;5.05;;;2.70;;
15921;SDS011;8060;50.948;3.146;2022-09-02T14:27:21;5.20;;;2.83;;
15921;SDS011;8060;50.948;3.146;2022-09-02T14:29:53;10.73;;;2.85;;
15921;SDS011;8060;50.948;3.146;2022-09-02T14:32:23;6.40;;;2.85;;
15921;SDS011;8060;50.948;3.146;2022-09-02T14:37:51;11.35;;;2.75;;
15921;SDS011;8060;50.948;3.146;2022-09-02T14:40:31;25.38;;;3.35;;
15921;SDS011;8060;50.948;3.146;2022-09-02T14:43:00;13.55;;;3.13;;
15921;SDS011;8060;50.948;3.146;2022-09-02T14:45:32;12.93;;;2.95;;
15921;SDS011;8060;50.948;3.146;2022-09-02T14:48:01;8.32;;;2.88;;
15921;SDS011;8060;50.948;3.146;2022-09-02T14:50:37;8.57;;;2.80;;
15921;SDS011;8060;50.948;3.146;2022-09-02T14:53:07;6.97;;;2.65;;
15921;SDS011;8060;50.948;3.146;2022-09-02T14:55:41;15.63;;;3.35;;
15921;SDS011;8060;50.948;3.146;2022-09-02T14:58:15;8.90;;;2.90;;
15921;SDS011;8060;50.948;3.146;2022-09-02T15:00:50;8.48;;;3.53;;
15921;SDS011;8060;50.948;3.146;2022-09-02T15:03:20;12.50;;;3.28;;
15921;SDS011;8060;50.948;3.146;2022-09-02T15:05:49;8.75;;;3.03;;
15921;SDS011;8060;50.948;3.146;2022-09-02T15:08:19;7.55;;;3.10;;
15921;SDS011;8060;50.948;3.146;2022-09-02T15:10:47;7.88;;;3.15;;
15921;SDS011;8060;50.948;3.146;2022-09-02T15:13:18;8.27;;;3.10;;
15921;SDS011;8060;50.948;3.146;2022-09-02T15:15:53;3.42;;;2.50;;
15921;SDS011;8060;50.948;3.146;2022-09-02T15:18:22;6.88;;;3.20;;
15921;SDS011;8060;50.948;3.146;2022-09-02T15:20:50;7.05;;;2.78;;
15921;SDS011;8060;50.948;3.146;2022-09-02T15:23:20;3.75;;;2.80;;
15921;SDS011;8060;50.948;3.146;2022-09-02T15:25:49;4.18;;;2.72;;
15921;SDS011;8060;50.948;3.146;2022-09-02T15:28:19;6.15;;;3.08;;
15921;SDS011;8060;50.948;3.146;2022-09-02T15:30:47;4.70;;;2.60;;
15921;SDS011;8060;50.948;3.146;2022-09-02T15:33:27;9.10;;;3.55;;
15921;SDS011;8060;50.948;3.146;2022-09-02T15:36:03;7.32;;;3.13;;
15921;SDS011;8060;50.948;3.146;2022-09-02T15:38:33;8.68;;;3.38;;
15921;SDS011;8060;50.948;3.146;2022-09-02T15:41:10;6.47;;;3.30;;
15921;SDS011;8060;50.948;3.146;2022-09-02T15:43:39;4.07;;;2.57;;
15921;SDS011;8060;50.948;3.146;2022-09-02T15:46:15;5.43;;;3.13;;
15921;SDS011;8060;50.948;3.146;2022-09-02T15:48:49;5.40;;;3.20;;
15921;SDS011;8060;50.948;3.146;2022-09-02T15:51:18;4.15;;;2.90;;
15921;SDS011;8060;50.948;3.146;2022-09-02T15:53:52;4.30;;;3.05;;
15921;SDS011;8060;50.948;3.146;2022-09-02T15:56:22;5.85;;;2.72;;
15921;SDS011;8060;50.948;3.146;2022-09-02T15:58:54;7.25;;;2.80;;
15921;SDS011;8060;50.948;3.146;2022-09-02T16:01:24;7.13;;;3.00;;
15921;SDS011;8060;50.948;3.146;2022-09-02T16:03:54;6.72;;;3.15;;
15921;SDS011;8060;50.948;3.146;2022-09-02T16:06:23;6.72;;;3.40;;
15921;SDS011;8060;50.948;3.146;2022-09-02T16:08:51;6.53;;;3.63;;
15921;SDS011;8060;50.948;3.146;2022-09-02T16:11:19;3.83;;;3.10;;
15921;SDS011;8060;50.948;3.146;2022-09-02T16:13:48;5.90;;;3.27;;
15921;SDS011;8060;50.948;3.146;2022-09-02T16:16:17;4.15;;;3.30;;
15921;SDS011;8060;50.948;3.146;2022-09-02T16:18:48;5.53;;;3.28;;
15921;SDS011;8060;50.948;3.146;2022-09-02T16:21:20;5.95;;;3.20;;
15921;SDS011;8060;50.948;3.146;2022-09-02T16:23:50;4.45;;;3.05;;
15921;SDS011;8060;50.948;3.146;2022-09-02T16:26:21;7.28;;;3.08;;
15921;SDS011;8060;50.948;3.146;2022-09-02T16:28:51;5.85;;;3.38;;
15921;SDS011;8060;50.948;3.146;2022-09-02T16:31:21;5.82;;;3.25;;
15921;SDS011;8060;50.948;3.146;2022-09-02T16:33:51;5.28;;;3.33;;
15921;SDS011;8060;50.948;3.146;2022-09-02T16:36:22;5.25;;;3.40;;
15921;SDS011;8060;50.948;3.146;2022-09-02T16:38:58;4.50;;;3.17;;
15921;SDS011;8060;50.948;3.146;2022-09-02T16:41:27;4.75;;;3.33;;
15921;SDS011;8060;50.948;3.146;2022-09-02T16:44:00;6.22;;;3.00;;
15921;SDS011;8060;50.948;3.146;2022-09-02T16:46:30;7.80;;;4.40;;
15921;SDS011;8060;50.948;3.146;2022-09-02T16:48:58;5.68;;;4.25;;
15921;SDS011;8060;50.948;3.146;2022-09-02T16:51:28;6.38;;;4.10;;
15921;SDS011;8060;50.948;3.146;2022-09-02T16:53:57;7.30;;;4.10;;
15921;SDS011;8060;50.948;3.146;2022-09-02T16:56:27;5.65;;;3.53;;
15921;SDS011;8060;50.948;3.146;2022-09-02T16:58:58;6.32;;;3.58;;
15921;SDS011;8060;50.948;3.146;2022-09-02T17:01:28;3.75;;;3.15;;
15921;SDS011;8060;50.948;3.146;2022-09-02T17:03:58;4.65;;;3.30;;
15921;SDS011;8060;50.948;3.146;2022-09-02T17:06:28;5.78;;;3.83;;
15921;SDS011;8060;50.948;3.146;2022-09-02T17:08:56;4.50;;;3.50;;
15921;SDS011;8060;50.948;3.146;2022-09-02T17:11:25;4.78;;;3.03;;
15921;SDS011;8060;50.948;3.146;2022-09-02T17:13:55;4.78;;;3.00;;
15921;SDS011;8060;50.948;3.146;2022-09-02T17:16:28;4.30;;;3.47;;
15921;SDS011;8060;50.948;3.146;2022-09-02T17:18:57;4.78;;;3.00;;
15921;SDS011;8060;50.948;3.146;2022-09-02T17:21:29;4.55;;;3.10;;
15921;SDS011;8060;50.948;3.146;2022-09-02T17:24:00;5.22;;;2.97;;
15921;SDS011;8060;50.948;3.146;2022-09-02T17:26:30;3.40;;;3.10;;
15921;SDS011;8060;50.948;3.146;2022-09-02T17:29:00;4.13;;;3.10;;
15921;SDS011;8060;50.948;3.146;2022-09-02T17:31:51;4.03;;;2.80;;
15921;SDS011;8060;50.948;3.146;2022-09-02T17:34:19;3.17;;;2.78;;
15921;SDS011;8060;50.948;3.146;2022-09-02T17:36:49;3.88;;;3.20;;
15921;SDS011;8060;50.948;3.146;2022-09-02T17:39:17;3.97;;;2.95;;
15921;SDS011;8060;50.948;3.146;2022-09-02T17:41:47;3.20;;;2.85;;
15921;SDS011;8060;50.948;3.146;2022-09-02T17:44:20;3.50;;;3.20;;
15921;SDS011;8060;50.948;3.146;2022-09-02T17:46:49;2.90;;;2.60;;
15921;SDS011;8060;50.948;3.146;2022-09-02T17:49:17;4.60;;;3.20;;
15921;SDS011;8060;50.948;3.146;2022-09-02T17:51:46;4.35;;;2.85;;
15921;SDS011;8060;50.948;3.146;2022-09-02T17:54:16;5.05;;;2.92;;
15921;SDS011;8060;50.948;3.146;2022-09-02T17:59:39;5.40;;;3.13;;
15921;SDS011;8060;50.948;3.146;2022-09-02T18:02:28;4.75;;;3.30;;
15921;SDS011;8060;50.948;3.146;2022-09-02T18:05:21;4.68;;;3.58;;
15921;SDS011;8060;50.948;3.146;2022-09-02T18:07:56;3.70;;;3.30;;
15921;SDS011;8060;50.948;3.146;2022-09-02T18:10:33;5.43;;;3.83;;
15921;SDS011;8060;50.948;3.146;2022-09-02T18:13:04;6.33;;;5.17;;
15921;SDS011;8060;50.948;3.146;2022-09-02T18:15:35;6.35;;;4.72;;
15921;SDS011;8060;50.948;3.146;2022-09-02T18:18:10;12.20;;;5.53;;
15921;SDS011;8060;50.948;3.146;2022-09-02T18:20:42;9.63;;;5.30;;
15921;SDS011;8060;50.948;3.146;2022-09-02T18:23:23;9.00;;;6.00;;
15921;SDS011;8060;50.948;3.146;2022-09-02T18:26:01;8.13;;;5.67;;
15921;SDS011;8060;50.948;3.146;2022-09-02T18:28:44;7.20;;;5.23;;
15921;SDS011;8060;50.948;3.146;2022-09-02T18:31:28;8.20;;;5.50;;
15921;SDS011;8060;50.948;3.146;2022-09-02T18:34:08;8.80;;;5.10;;
15921;SDS011;8060;50.948;3.146;2022-09-02T18:36:51;6.67;;;5.07;;
15921;SDS011;8060;50.948;3.146;2022-09-02T18:39:42;9.90;;;4.83;;
15921;SDS011;8060;50.948;3.146;2022-09-02T18:42:29;6.97;;;5.20;;
15921;SDS011;8060;50.948;3.146;2022-09-02T18:45:05;6.97;;;5.03;;
15921;SDS011;8060;50.948;3.146;2022-09-02T18:47:46;6.97;;;5.00;;
15921;SDS011;8060;50.948;3.146;2022-09-02T18:50:20;5.67;;;5.07;;
15921;SDS011;8060;50.948;3.146;2022-09-02T18:53:11;8.83;;;5.03;;
15921;SDS011;8060;50.948;3.146;2022-09-02T18:55:42;8.47;;;5.20;;
15921;SDS011;8060;50.948;3.146;2022-09-02T18:58:14;7.17;;;4.83;;
15921;SDS011;8060;50.948;3.146;2022-09-02T19:00:51;5.77;;;5.13;;
15921;SDS011;8060;50.948;3.146;2022-09-02T19:03:24;7.47;;;4.90;;
15921;SDS011;8060;50.948;3.146;2022-09-02T19:05:57;6.53;;;3.50;;
15921;SDS011;8060;50.948;3.146;2022-09-02T19:08:25;3.30;;;3.00;;
15921;SDS011;8060;50.948;3.146;2022-09-02T19:11:00;5.23;;;2.47;;
15921;SDS011;8060;50.948;3.146;2022-09-02T19:13:33;10.03;;;2.63;;
15921;SDS011;8060;50.948;3.146;2022-09-02T19:16:13;5.83;;;2.20;;
15921;SDS011;8060;50.948;3.146;2022-09-02T19:18:43;2.97;;;2.20;;
15921;SDS011;8060;50.948;3.146;2022-09-02T19:21:12;4.00;;;2.27;;
15921;SDS011;8060;50.948;3.146;2022-09-02T19:23:44;3.47;;;2.50;;
15921;SDS011;8060;50.948;3.146;2022-09-02T19:26:15;3.83;;;2.83;;
15921;SDS011;8060;50.948;3.146;2022-09-02T19:28:44;2.80;;;2.47;;
15921;SDS011;8060;50.948;3.146;2022-09-02T19:31:16;6.03;;;3.13;;
15921;SDS011;8060;50.948;3.146;2022-09-02T19:33:46;3.17;;;2.73;;
15921;SDS011;8060;50.948;3.146;2022-09-02T19:36:20;3.93;;;3.00;;
15921;SDS011;8060;50.948;3.146;2022-09-02T19:38:56;3.10;;;2.60;;
15921;SDS011;8060;50.948;3.146;2022-09-02T19:41:26;2.83;;;2.53;;
15921;SDS011;8060;50.948;3.146;2022-09-02T19:43:54;8.37;;;3.00;;
15921;SDS011;8060;50.948;3.146;2022-09-02T19:46:23;3.00;;;2.67;;
15921;SDS011;8060;50.948;3.146;2022-09-02T19:49:11;5.53;;;2.90;;
15921;SDS011;8060;50.948;3.146;2022-09-02T19:51:39;7.70;;;2.97;;
15921;SDS011;8060;50.948;3.146;2022-09-02T19:54:07;4.70;;;2.67;;
15921;SDS011;8060;50.948;3.146;2022-09-02T19:56:40;3.07;;;2.60;;
15921;SDS011;8060;50.948;3.146;2022-09-02T19:59:08;4.17;;;2.83;;
15921;SDS011;8060;50.948;3.146;2022-09-02T20:01:37;5.00;;;2.73;;
15921;SDS011;8060;50.948;3.146;2022-09-02T20:04:05;2.57;;;2.27;;
